Time;durP1;ratioP1;P1;durP2;ratioP2;P2;SDS_P1;SDS_P2;PMS_P1;PMS_P2;Temp;Humidity;BMP_temperature;BMP_pressure;BME280_temperature;BME280_humidity;BME280_pressure;Samples;Min_cycle;Max_cycle;Signal;HPM_P1;HPM_P2
2021/07/09 00:02:05;;;;;;;;;6.00;5.00;;;;;-146.80;100.00;64830.25;5078434;28;45314;-64
2021/07/09 00:04:31;;;;;;;;;5.75;4.25;;;;;-146.80;100.00;64830.25;5077713;28;46742;-65
2021/07/09 00:06:56;;;;;;;;;5.00;5.00;;;;;-146.80;100.00;64830.25;5077809;28;45177;-63
2021/07/09 00:09:22;;;;;;;;;6.25;6.00;;;;;-146.80;100.00;64830.25;5078142;28;45287;-64
2021/07/09 00:11:50;;;;;;;;;5.25;5.25;;;;;-146.80;100.00;64830.25;5078235;28;45710;-64
2021/07/09 00:14:18;;;;;;;;;6.25;5.50;;;;;-146.80;100.00;64830.25;5077475;28;45365;-66
2021/07/09 00:16:45;;;;;;;;;5.25;3.00;;;;;-146.80;100.00;64830.25;5077040;27;45381;-62
2021/07/09 00:19:11;;;;;;;;;6.50;4.50;;;;;-146.80;100.00;64830.25;5076312;28;45397;-63
2021/07/09 00:21:37;;;;;;;;;6.00;6.00;;;;;-146.80;100.00;64830.25;5078259;28;45583;-64
2021/07/09 00:24:04;;;;;;;;;6.00;5.50;;;;;-146.80;100.00;64830.25;5077384;27;47860;-63
2021/07/09 00:26:30;;;;;;;;;6.25;5.00;;;;;-146.80;100.00;64830.25;5076303;28;45368;-62
2021/07/09 00:29:00;;;;;;;;;6.00;6.00;;;;;-146.80;100.00;64830.25;5077580;28;45458;-63
2021/07/09 00:31:26;;;;;;;;;7.25;7.00;;;;;-146.80;100.00;64830.25;5077710;27;45492;-64
2021/07/09 00:33:52;;;;;;;;;8.00;6.75;;;;;-146.80;100.00;64830.25;5077124;27;46260;-64
2021/07/09 00:36:17;;;;;;;;;5.75;5.75;;;;;-146.80;100.00;64830.25;5077346;28;45329;-64
2021/07/09 00:38:43;;;;;;;;;6.25;5.25;;;;;-146.80;100.00;64830.25;5077629;28;45315;-61
2021/07/09 00:41:09;;;;;;;;;9.00;7.50;;;;;-146.80;100.00;64830.25;5076906;28;45543;-63
2021/07/09 00:43:34;;;;;;;;;9.50;6.25;;;;;-146.80;100.00;64830.25;5077507;28;46106;-64
2021/07/09 00:46:01;;;;;;;;;6.00;5.00;;;;;-146.80;100.00;64830.25;5077482;28;45233;-63
2021/07/09 00:48:28;;;;;;;;;7.00;7.00;;;;;-146.80;100.00;64830.25;5077303;27;45399;-63
2021/07/09 00:51:05;;;;;;;;;6.50;5.50;;;;;-146.80;100.00;64830.25;5077417;28;45360;-64
2021/07/09 00:53:30;;;;;;;;;8.25;7.00;;;;;-146.80;100.00;64830.25;5077129;28;46226;-65
2021/07/09 00:55:56;;;;;;;;;6.50;5.00;;;;;-146.80;100.00;64830.25;5075776;28;45315;-65
2021/07/09 00:58:22;;;;;;;;;6.75;6.00;;;;;-146.80;100.00;64830.25;5077139;28;45385;-62
2021/07/09 01:00:47;;;;;;;;;6.00;6.00;;;;;-146.80;100.00;64830.25;5077565;28;45457;-65
2021/07/09 01:03:13;;;;;;;;;5.50;5.50;;;;;-146.80;100.00;64830.25;5075645;28;47148;-63
2021/07/09 01:05:39;;;;;;;;;6.00;6.00;;;;;-146.80;100.00;64830.25;5077396;28;45239;-62
2021/07/09 01:08:05;;;;;;;;;7.25;6.25;;;;;-146.80;100.00;64830.25;5077030;28;45376;-63
2021/07/09 01:10:31;;;;;;;;;7.75;7.75;;;;;-146.80;100.00;64830.25;5075913;28;45493;-63
2021/07/09 01:12:57;;;;;;;;;7.50;7.50;;;;;-146.80;100.00;64830.25;5076567;28;46331;-65
2021/07/09 01:15:22;;;;;;;;;8.00;5.00;;;;;-146.80;100.00;64830.25;5076567;28;45445;-60
2021/07/09 01:17:49;;;;;;;;;7.00;6.50;;;;;-146.80;100.00;64830.25;5076845;27;45313;-63
2021/07/09 01:20:17;;;;;;;;;8.25;6.00;;;;;-146.80;100.00;64830.25;5077111;27;45367;-61
2021/07/09 01:22:44;;;;;;;;;8.00;7.50;;;;;-146.80;100.00;64830.25;5076329;28;46113;-58
2021/07/09 01:25:21;;;;;;;;;7.00;6.25;;;;;-146.80;100.00;64830.25;5076820;28;45286;-63
2021/07/09 01:27:50;;;;;;;;;9.25;7.00;;;;;-146.80;100.00;64830.25;5076399;28;45717;-62
2021/07/09 01:30:20;;;;;;;;;10.50;8.25;;;;;-146.80;100.00;64830.25;5058497;28;45643;-64
2021/07/09 01:32:47;;;;;;;;;6.00;6.00;;;;;-146.80;100.00;64830.25;5076162;28;45342;-65
2021/07/09 01:35:13;;;;;;;;;9.00;6.50;;;;;-146.80;100.00;64830.25;5076851;28;45350;-63
2021/07/09 01:37:39;;;;;;;;;7.00;7.00;;;;;-146.80;100.00;64830.25;5077087;28;45436;-64
2021/07/09 01:40:07;;;;;;;;;8.75;6.00;;;;;-146.80;100.00;64830.25;5075513;28;45395;-64
2021/07/09 01:42:33;;;;;;;;;7.50;6.50;;;;;-146.80;100.00;64830.25;5076497;28;45456;-63
2021/07/09 01:44:58;;;;;;;;;7.25;7.00;;;;;-146.80;100.00;64830.25;5076507;27;45211;-63
2021/07/09 01:47:23;;;;;;;;;8.75;8.00;;;;;-146.80;100.00;64830.25;5076424;28;45226;-63
2021/07/09 01:49:50;;;;;;;;;9.25;7.00;;;;;-146.80;100.00;64830.25;5075280;28;45267;-63
2021/07/09 01:52:16;;;;;;;;;11.00;8.00;;;;;-146.80;100.00;64830.25;5076177;28;45268;-63
2021/07/09 01:54:42;;;;;;;;;8.75;6.50;;;;;-146.80;100.00;64830.25;5076192;27;45370;-60
2021/07/09 01:57:07;;;;;;;;;9.00;7.75;;;;;-146.80;100.00;64830.25;5076547;28;45321;-63
2021/07/09 01:59:32;;;;;;;;;9.00;8.50;;;;;-146.80;100.00;64830.25;5076359;28;45572;-63
2021/07/09 02:01:58;;;;;;;;;9.00;8.00;;;;;-146.80;100.00;64830.25;5074682;28;46103;-60
2021/07/09 02:04:23;;;;;;;;;12.25;8.75;;;;;-146.80;100.00;64830.25;5076013;28;45398;-64
2021/07/09 02:06:48;;;;;;;;;10.00;9.00;;;;;-146.80;100.00;64830.25;5076181;28;45820;-63
2021/07/09 02:09:14;;;;;;;;;10.75;9.00;;;;;-146.80;100.00;64830.25;5076785;28;45904;-63
2021/07/09 02:11:39;;;;;;;;;6.25;5.75;;;;;-146.80;100.00;64830.25;5076123;28;46140;-63
2021/07/09 02:14:04;;;;;;;;;4.50;4.25;;;;;-146.80;100.00;64830.25;5076070;27;45516;-62
2021/07/09 02:16:30;;;;;;;;;8.50;8.00;;;;;-146.80;100.00;64830.25;5076091;28;45386;-63
2021/07/09 02:18:55;;;;;;;;;7.25;6.75;;;;;-146.80;100.00;64830.25;5076252;28;45592;-61
2021/07/09 02:21:21;;;;;;;;;7.75;7.00;;;;;-146.80;100.00;64830.25;5075852;28;46248;-63
2021/07/09 02:23:46;;;;;;;;;8.75;8.75;;;;;-146.80;100.00;64830.25;5075871;28;45384;-61
2021/07/09 02:26:11;;;;;;;;;7.50;6.75;;;;;-146.80;100.00;64830.25;5076427;27;45347;-65
2021/07/09 02:28:37;;;;;;;;;7.25;6.50;;;;;-146.80;100.00;64830.25;5076014;27;45239;-63
2021/07/09 02:31:02;;;;;;;;;10.75;8.25;;;;;-146.80;100.00;64830.25;5074278;28;47259;-64
2021/07/09 02:33:28;;;;;;;;;6.75;6.75;;;;;-146.80;100.00;64830.25;5074394;28;45345;-64
2021/07/09 02:35:53;;;;;;;;;8.50;7.75;;;;;-146.80;100.00;64830.25;5075806;28;45243;-63
2021/07/09 02:38:18;;;;;;;;;8.75;8.25;;;;;-146.80;100.00;64830.25;5075995;27;45492;-63
2021/07/09 02:40:44;;;;;;;;;8.75;7.75;;;;;-146.80;100.00;64830.25;5078050;28;46490;-63
2021/07/09 02:43:09;;;;;;;;;11.50;9.25;;;;;-146.80;100.00;64830.25;5079248;27;45436;-62
2021/07/09 02:45:35;;;;;;;;;12.25;8.00;;;;;-146.80;100.00;64830.25;5079375;28;45403;-63
2021/07/09 02:48:00;;;;;;;;;8.00;8.00;;;;;-146.80;100.00;64830.25;5079267;27;45521;-64
2021/07/09 02:50:26;;;;;;;;;13.25;9.00;;;;;-146.80;100.00;64830.25;5078873;28;45733;-63
2021/07/09 02:52:52;;;;;;;;;10.25;7.75;;;;;-146.80;100.00;64830.25;5079109;27;45335;-66
2021/07/09 02:55:22;;;;;;;;;10.75;7.75;;;;;-146.80;100.00;64830.25;5079105;27;45438;-64
2021/07/09 02:57:48;;;;;;;;;8.25;7.25;;;;;-146.80;100.00;64830.25;5079500;28;45326;-63
2021/07/09 03:00:15;;;;;;;;;10.25;8.00;;;;;-146.80;100.00;64830.25;5079170;27;45269;-63
2021/07/09 03:02:41;;;;;;;;;8.75;8.75;;;;;-146.80;100.00;64830.25;5078926;28;45329;-62
2021/07/09 03:05:08;;;;;;;;;7.75;6.75;;;;;-146.80;100.00;64830.25;5077757;28;45270;-59
2021/07/09 03:07:33;;;;;;;;;10.00;7.75;;;;;-146.80;100.00;64830.25;5079141;28;45374;-56
2021/07/09 03:09:59;;;;;;;;;8.00;6.75;;;;;-146.80;100.00;64830.25;5078765;28;46587;-58
2021/07/09 03:12:25;;;;;;;;;8.00;8.00;;;;;-146.80;100.00;64830.25;5078870;28;45627;-63
2021/07/09 03:14:50;;;;;;;;;10.00;9.50;;;;;-146.80;100.00;64830.25;5078922;28;45330;-63
2021/07/09 03:17:16;;;;;;;;;9.75;9.00;;;;;-146.80;100.00;64830.25;5079272;27;45336;-64
2021/07/09 03:19:41;;;;;;;;;9.00;9.00;;;;;-146.80;100.00;64830.25;5077307;28;45513;-63
2021/07/09 03:22:06;;;;;;;;;13.00;9.50;;;;;-146.80;100.00;64830.25;5078415;28;45449;-63
2021/07/09 03:24:32;;;;;;;;;8.00;8.00;;;;;-146.80;100.00;64830.25;5078752;28;45373;-63
2021/07/09 03:26:57;;;;;;;;;10.00;9.00;;;;;-146.80;100.00;64830.25;5078815;28;45548;-62
2021/07/09 03:29:23;;;;;;;;;10.25;8.00;;;;;-146.80;100.00;64830.25;5078595;28;45335;-63
2021/07/09 03:31:49;;;;;;;;;13.25;9.50;;;;;-146.80;100.00;64830.25;5078161;28;45457;-62
2021/07/09 03:34:14;;;;;;;;;9.75;9.75;;;;;-146.80;100.00;64830.25;5078774;27;45353;-62
2021/07/09 03:36:45;;;;;;;;;12.25;10.50;;;;;-146.80;100.00;64830.25;5078765;28;45222;-62
2021/07/09 03:39:11;;;;;;;;;9.75;9.00;;;;;-146.80;100.00;64830.25;5078197;28;46088;-63
2021/07/09 03:41:37;;;;;;;;;13.50;8.75;;;;;-146.80;100.00;64830.25;5078351;28;45377;-63
2021/07/09 03:44:03;;;;;;;;;9.50;7.25;;;;;-146.80;100.00;64830.25;5078412;28;45224;-64
2021/07/09 03:46:28;;;;;;;;;11.25;8.75;;;;;-146.80;100.00;64830.25;5077251;28;45450;-61
2021/07/09 03:48:54;;;;;;;;;10.50;9.00;;;;;-146.80;100.00;64830.25;5077868;28;45952;-62
2021/07/09 03:51:19;;;;;;;;;9.25;8.75;;;;;-146.80;100.00;64830.25;5078184;27;45350;-59
2021/07/09 03:53:44;;;;;;;;;8.25;8.25;;;;;-146.80;100.00;64830.25;5078674;27;45534;-62
2021/07/09 03:56:10;;;;;;;;;9.25;9.00;;;;;-146.80;100.00;64830.25;5076997;28;45560;-63
2021/07/09 03:58:35;;;;;;;;;12.00;9.25;;;;;-146.80;100.00;64830.25;5076441;28;45359;-61
2021/07/09 04:01:01;;;;;;;;;9.50;7.00;;;;;-146.80;100.00;64830.25;5077758;28;45464;-63
2021/07/09 04:03:27;;;;;;;;;10.00;9.50;;;;;-146.80;100.00;64830.25;5077958;27;45310;-61
2021/07/09 04:05:52;;;;;;;;;12.75;9.75;;;;;-146.80;100.00;64830.25;5078159;28;45558;-62
2021/07/09 04:08:17;;;;;;;;;11.50;11.00;;;;;-146.80;100.00;64830.25;5078139;27;46248;-60
2021/07/09 04:10:43;;;;;;;;;10.50;9.75;;;;;-146.80;100.00;64830.25;5077658;28;45405;-63
2021/07/09 04:13:08;;;;;;;;;9.00;8.50;;;;;-146.80;100.00;64830.25;5078098;27;45370;-62
2021/07/09 04:15:33;;;;;;;;;10.25;9.00;;;;;-146.80;100.00;64830.25;5076708;28;45591;-63
2021/07/09 04:17:59;;;;;;;;;13.75;11.25;;;;;-146.80;100.00;64830.25;5077622;28;45389;-64
2021/07/09 04:20:24;;;;;;;;;10.00;10.00;;;;;-146.80;100.00;64830.25;5077786;28;45314;-63
2021/07/09 04:22:50;;;;;;;;;13.50;11.50;;;;;-146.80;100.00;64830.25;5078072;28;45362;-61
2021/07/09 04:25:15;;;;;;;;;10.00;10.00;;;;;-146.80;100.00;64830.25;5059692;28;45413;-63
2021/07/09 04:27:41;;;;;;;;;11.00;10.00;;;;;-146.80;100.00;64830.25;5077470;28;46321;-58
2021/07/09 04:30:09;;;;;;;;;15.00;12.25;;;;;-146.80;100.00;64830.25;5077354;28;45381;-65
2021/07/09 04:32:35;;;;;;;;;10.75;10.75;;;;;-146.80;100.00;64830.25;5077567;28;45205;-63
2021/07/09 04:35:00;;;;;;;;;11.75;11.25;;;;;-146.80;100.00;64830.25;5077683;28;45517;-64
2021/07/09 04:37:26;;;;;;;;;11.50;10.00;;;;;-146.80;100.00;64830.25;5077125;28;46427;-59
2021/07/09 04:39:51;;;;;;;;;9.50;9.50;;;;;-146.80;100.00;64830.25;5077583;28;45432;-62
2021/07/09 04:42:17;;;;;;;;;16.25;11.25;;;;;-146.80;100.00;64830.25;5077576;28;45698;-59
2021/07/09 04:44:42;;;;;;;;;12.50;12.25;;;;;-146.80;100.00;64830.25;5075837;28;45528;-61
2021/07/09 04:47:08;;;;;;;;;14.50;10.25;;;;;-146.80;100.00;64830.25;5076518;28;45412;-65
2021/07/09 04:49:34;;;;;;;;;13.50;10.00;;;;;-146.80;100.00;64830.25;5076966;28;45426;-64
2021/07/09 04:51:59;;;;;;;;;8.75;8.25;;;;;-146.80;100.00;64830.25;5076977;28;45338;-64
2021/07/09 04:54:24;;;;;;;;;13.75;11.00;;;;;-146.80;100.00;64830.25;5076940;28;45336;-62
2021/07/09 04:56:50;;;;;;;;;10.50;10.25;;;;;-146.80;100.00;64830.25;5075836;28;48323;-64
2021/07/09 04:59:15;;;;;;;;;13.00;11.75;;;;;-146.80;100.00;64830.25;5076714;28;45444;-62
2021/07/09 05:01:41;;;;;;;;;12.50;10.00;;;;;-146.80;100.00;64830.25;5076696;28;45350;-65
2021/07/09 05:04:07;;;;;;;;;11.25;9.25;;;;;-146.80;100.00;64830.25;5076248;28;45529;-64
2021/07/09 05:06:33;;;;;;;;;19.00;10.00;;;;;-146.80;100.00;64830.25;5076640;27;45417;-64
2021/07/09 05:08:59;;;;;;;;;13.50;11.00;;;;;-146.80;100.00;64830.25;5076882;28;45284;-65
2021/07/09 05:11:24;;;;;;;;;15.25;15.25;;;;;-146.80;100.00;64830.25;5076946;28;45368;-64
2021/07/09 05:13:50;;;;;;;;;11.75;10.75;;;;;-146.80;100.00;64830.25;5076158;28;45525;-63
2021/07/09 05:16:15;;;;;;;;;12.25;10.25;;;;;-146.80;100.00;64830.25;5076602;28;46258;-62
2021/07/09 05:18:41;;;;;;;;;13.50;13.25;;;;;-146.80;100.00;64830.25;5075450;28;45284;-63
2021/07/09 05:21:06;;;;;;;;;13.50;10.50;;;;;-146.80;100.00;64830.25;5076816;28;45752;-65
2021/07/09 05:23:32;;;;;;;;;19.00;19.00;;;;;-146.80;100.00;64830.25;5076940;28;45536;-63
2021/07/09 05:25:57;;;;;;;;;18.00;15.50;;;;;-146.80;100.00;64830.25;5076514;27;45369;-66
2021/07/09 05:28:22;;;;;;;;;14.25;11.25;;;;;-146.80;100.00;64830.25;5076775;28;45343;-63
2021/07/09 05:30:48;;;;;;;;;13.25;12.00;;;;;-146.80;100.00;64830.25;5075340;28;45492;-65
2021/07/09 05:33:17;;;;;;;;;22.00;17.25;;;;;-146.80;100.00;64830.25;5077022;27;45353;-64
2021/07/09 05:35:43;;;;;;;;;20.25;16.00;;;;;-146.80;100.00;64830.25;5076390;28;45316;-64
2021/07/09 05:38:10;;;;;;;;;23.25;19.25;;;;;-146.80;100.00;64830.25;5076238;28;45337;-67
2021/07/09 05:40:35;;;;;;;;;12.75;12.25;;;;;-146.80;100.00;64830.25;5076464;28;45405;-65
2021/07/09 05:43:03;;;;;;;;;11.25;10.75;;;;;-146.80;100.00;64830.25;5076446;28;45326;-63
2021/07/09 05:45:30;;;;;;;;;18.75;12.50;;;;;-146.80;100.00;64830.25;5076101;27;47256;-63
2021/07/09 05:47:56;;;;;;;;;14.00;12.25;;;;;-146.80;100.00;64830.25;5074528;28;45445;-65
2021/07/09 05:50:22;;;;;;;;;11.00;10.25;;;;;-146.80;100.00;64830.25;5076482;28;45361;-62
2021/07/09 05:52:50;;;;;;;;;12.00;11.50;;;;;-146.80;100.00;64830.25;5076121;28;45564;-65
2021/07/09 05:55:16;;;;;;;;;12.50;10.25;;;;;-146.80;100.00;64830.25;5075966;27;45282;-63
2021/07/09 05:57:41;;;;;;;;;18.50;15.00;;;;;-146.80;100.00;64830.25;5075818;28;45241;-62
2021/07/09 06:00:09;;;;;;;;;13.00;12.00;;;;;-146.80;100.00;64830.25;5075930;28;45270;-65
2021/07/09 06:02:35;;;;;;;;;16.75;14.25;;;;;-146.80;100.00;64830.25;5076189;28;45541;-63
2021/07/09 06:05:01;;;;;;;;;12.75;11.25;;;;;-146.80;100.00;64830.25;5075848;28;47175;-61
2021/07/09 06:07:26;;;;;;;;;14.50;14.00;;;;;-146.80;100.00;64830.25;5075787;28;45419;-61
2021/07/09 06:09:51;;;;;;;;;20.75;15.00;;;;;-146.80;100.00;64830.25;5076312;28;45346;-64
2021/07/09 06:12:17;;;;;;;;;14.00;13.75;;;;;-146.80;100.00;64830.25;5076024;28;45226;-63
2021/07/09 06:14:43;;;;;;;;;15.50;15.00;;;;;-146.80;100.00;64830.25;5074451;28;45568;-64
2021/07/09 06:17:08;;;;;;;;;13.50;12.75;;;;;-146.80;100.00;64830.25;5075737;28;45240;-64
2021/07/09 06:19:33;;;;;;;;;14.25;11.00;;;;;-146.80;100.00;64830.25;5075676;28;45353;-63
2021/07/09 06:21:59;;;;;;;;;16.00;14.00;;;;;-146.80;100.00;64830.25;5074790;28;45404;-65
2021/07/09 06:24:25;;;;;;;;;16.00;14.50;;;;;-146.80;100.00;64830.25;5076019;27;46022;-68
2021/07/09 06:26:50;;;;;;;;;17.00;13.75;;;;;-146.80;100.00;64830.25;5075287;28;45363;-64
2021/07/09 06:29:16;;;;;;;;;16.25;11.50;;;;;-146.80;100.00;64830.25;5075600;28;45373;-65
2021/07/09 06:31:41;;;;;;;;;16.75;12.00;;;;;-146.80;100.00;64830.25;5075800;28;45329;-65
2021/07/09 06:34:07;;;;;;;;;14.75;13.25;;;;;-146.80;100.00;64830.25;5075535;28;46315;-64
2021/07/09 06:36:32;;;;;;;;;16.75;14.25;;;;;-146.80;100.00;64830.25;5075653;27;45334;-65
2021/07/09 06:38:57;;;;;;;;;18.75;15.75;;;;;-146.80;100.00;64830.25;5075528;28;45950;-62
2021/07/09 06:41:23;;;;;;;;;16.50;14.25;;;;;-146.80;100.00;64830.25;5075661;28;45612;-65
2021/07/09 06:43:48;;;;;;;;;15.75;14.25;;;;;-146.80;100.00;64830.25;5075275;28;45473;-64
2021/07/09 06:46:14;;;;;;;;;14.50;12.75;;;;;-146.80;100.00;64830.25;5075305;27;45432;-65
2021/07/09 06:48:40;;;;;;;;;17.00;12.25;;;;;-146.80;100.00;64830.25;5075305;28;45400;-64
2021/07/09 06:51:07;;;;;;;;;15.75;12.00;;;;;-146.80;100.00;64830.25;5075441;27;45568;-65
2021/07/09 06:53:32;;;;;;;;;14.00;13.25;;;;;-146.80;100.00;64830.25;5074421;27;46832;-61
2021/07/09 06:55:57;;;;;;;;;14.00;13.50;;;;;-146.80;100.00;64830.25;5075402;28;45380;-62
2021/07/09 06:58:23;;;;;;;;;17.00;13.50;;;;;-146.80;100.00;64830.25;5075516;28;45631;-64
2021/07/09 07:00:48;;;;;;;;;13.50;13.00;;;;;-146.80;100.00;64830.25;5075643;28;45172;-65
2021/07/09 07:03:14;;;;;;;;;18.00;15.50;;;;;-146.80;100.00;64830.25;5075447;28;45741;-65
2021/07/09 07:05:40;;;;;;;;;25.75;18.75;;;;;-146.80;100.00;64830.25;5073877;28;45571;-65
2021/07/09 07:08:16;;;;;;;;;16.00;13.00;;;;;-146.80;100.00;64830.25;5075414;28;45310;-65
2021/07/09 07:10:42;;;;;;;;;16.25;12.50;;;;;-146.80;100.00;64830.25;5074258;28;45438;-64
2021/07/09 07:13:07;;;;;;;;;13.00;12.50;;;;;-146.80;100.00;64830.25;5075005;28;45751;-64
2021/07/09 07:15:33;;;;;;;;;15.50;12.75;;;;;-146.80;100.00;64830.25;5073678;28;45389;-64
2021/07/09 07:17:59;;;;;;;;;17.50;12.00;;;;;-146.80;100.00;64830.25;5073940;28;45377;-64
2021/07/09 07:20:24;;;;;;;;;23.25;17.75;;;;;-146.80;100.00;64830.25;5075233;28;45410;-67
2021/07/09 07:22:49;;;;;;;;;15.75;14.50;;;;;-146.80;100.00;64830.25;5074802;27;46143;-64
2021/07/09 07:25:15;;;;;;;;;13.00;12.75;;;;;-146.80;100.00;64830.25;5074886;28;45374;-63
2021/07/09 07:27:40;;;;;;;;;16.00;15.00;;;;;-146.80;100.00;64830.25;5077153;28;45422;-64
2021/07/09 07:30:06;;;;;;;;;18.75;15.50;;;;;-146.80;100.00;64830.25;5078589;28;45676;-65
2021/07/09 07:32:32;;;;;;;;;16.00;13.00;;;;;-146.80;100.00;64830.25;5078044;28;46522;-64
2021/07/09 07:34:57;;;;;;;;;13.75;12.00;;;;;-146.80;100.00;64830.25;5078551;28;45209;-63
2021/07/09 07:37:23;;;;;;;;;14.50;12.25;;;;;-146.80;100.00;64830.25;5077005;28;45426;-67
2021/07/09 07:39:49;;;;;;;;;14.00;13.75;;;;;-146.80;100.00;64830.25;5077207;28;45317;-64
2021/07/09 07:42:15;;;;;;;;;15.00;13.00;;;;;-146.80;100.00;64830.25;5078080;28;45406;-64
2021/07/09 07:44:40;;;;;;;;;19.00;14.25;;;;;-146.80;100.00;64830.25;5076854;28;45346;-65
2021/07/09 07:47:06;;;;;;;;;17.75;14.00;;;;;-146.80;100.00;64830.25;5078304;28;45787;-66
2021/07/09 07:49:31;;;;;;;;;13.75;12.25;;;;;-146.80;100.00;64830.25;5077275;28;45750;-65
2021/07/09 07:51:57;;;;;;;;;13.00;13.00;;;;;-146.80;100.00;64830.25;5078233;27;45337;-63
2021/07/09 07:54:22;;;;;;;;;13.75;13.75;;;;;-146.80;100.00;64830.25;5077944;27;45474;-63
2021/07/09 07:56:47;;;;;;;;;17.25;12.75;;;;;-146.80;100.00;64830.25;5078268;27;45796;-60
2021/07/09 07:59:13;;;;;;;;;14.00;12.75;;;;;-146.80;100.00;64830.25;5077021;28;45636;-64
2021/07/09 08:01:39;;;;;;;;;14.25;13.50;;;;;-146.80;100.00;64830.25;5076572;28;47708;-64
2021/07/09 08:04:05;;;;;;;;;19.00;14.75;;;;;-146.80;100.00;64830.25;5078047;28;45342;-63
2021/07/09 08:06:31;;;;;;;;;22.00;15.25;;;;;-146.80;100.00;64830.25;5078518;27;45385;-67
2021/07/09 08:08:56;;;;;;;;;19.25;18.00;;;;;-146.80;100.00;64830.25;5078250;28;46037;-64
2021/07/09 08:11:22;;;;;;;;;18.50;18.50;;;;;-146.80;100.00;64830.25;5077410;28;45448;-64
2021/07/09 08:13:48;;;;;;;;;19.00;17.00;;;;;-146.80;100.00;64830.25;5077957;28;45412;-63
2021/07/09 08:16:13;;;;;;;;;19.50;19.50;;;;;-146.80;100.00;64830.25;5077897;28;45335;-64
2021/07/09 08:18:39;;;;;;;;;16.50;14.75;;;;;-146.80;100.00;64830.25;5076423;28;45235;-67
2021/07/09 08:21:04;;;;;;;;;15.75;14.25;;;;;-146.80;100.00;64830.25;5076423;28;48428;-65
2021/07/09 08:23:30;;;;;;;;;12.25;11.75;;;;;-146.80;100.00;64830.25;5077495;28;45375;-65
2021/07/09 08:25:57;;;;;;;;;10.00;9.00;;;;;-146.80;100.00;64830.25;5077668;28;45275;-65
2021/07/09 08:28:23;;;;;;;;;13.25;11.00;;;;;-146.80;100.00;64830.25;5077550;28;45436;-66
2021/07/09 08:30:49;;;;;;;;;12.50;11.00;;;;;-146.80;100.00;64830.25;5077216;27;45409;-64
2021/07/09 08:33:14;;;;;;;;;13.50;13.50;;;;;-146.80;100.00;64830.25;5077578;27;45416;-65
2021/07/09 08:35:40;;;;;;;;;17.75;14.25;;;;;-146.80;100.00;64830.25;5077615;28;45803;-66
2021/07/09 08:38:06;;;;;;;;;10.00;9.00;;;;;-146.80;100.00;64830.25;5075327;28;45379;-67
2021/07/09 08:40:32;;;;;;;;;9.75;9.00;;;;;-146.80;100.00;64830.25;5077879;27;46184;-66
2021/07/09 08:42:57;;;;;;;;;12.50;10.00;;;;;-146.80;100.00;64830.25;5077154;28;45354;-68
2021/07/09 08:45:23;;;;;;;;;10.75;9.00;;;;;-146.80;100.00;64830.25;5077530;28;45433;-66
2021/07/09 08:47:49;;;;;;;;;13.00;9.75;;;;;-146.80;100.00;64830.25;5076155;28;45341;-66
2021/07/09 08:50:15;;;;;;;;;9.25;9.25;;;;;-146.80;100.00;64830.25;5059135;28;48082;-66
2021/07/09 08:52:42;;;;;;;;;11.50;10.25;;;;;-146.80;100.00;64830.25;5077070;28;45317;-65
2021/07/09 08:55:13;;;;;;;;;12.00;10.25;;;;;-146.80;100.00;64830.25;5077217;28;45394;-65
2021/07/09 08:57:42;;;;;;;;;13.50;11.00;;;;;-146.80;100.00;64830.25;5077301;28;45519;-66
2021/07/09 09:00:23;;;;;;;;;14.50;13.00;;;;;-146.80;100.00;64830.25;5075635;27;48350;-63
2021/07/09 09:02:49;;;;;;;;;15.75;13.00;;;;;-146.80;100.00;64830.25;5077154;28;45411;-63
2021/07/09 09:05:25;;;;;;;;;11.00;9.50;;;;;-146.80;100.00;64830.25;5077100;28;45270;-66
2021/07/09 09:08:07;;;;;;;;;11.50;9.00;;;;;-146.80;100.00;64830.25;5077451;28;45497;-66
2021/07/09 09:10:36;;;;;;;;;12.75;11.00;;;;;-146.80;100.00;64830.25;5077156;27;45245;-65
2021/07/09 09:13:22;;;;;;;;;9.00;6.75;;;;;-146.80;100.00;64830.25;5077065;28;45416;-63
2021/07/09 09:16:07;;;;;;;;;11.50;9.75;;;;;-146.80;100.00;64830.25;5075410;28;45433;-66
2021/07/09 09:18:43;;;;;;;;;13.75;12.25;;;;;-146.80;100.00;64830.25;5075797;27;45603;-66
2021/07/09 09:21:15;;;;;;;;;14.00;10.25;;;;;-146.80;100.00;64830.25;5076432;28;46941;-65
2021/07/09 09:23:55;;;;;;;;;13.25;8.75;;;;;-146.80;100.00;64830.25;5075395;28;45672;-65
2021/07/09 09:26:55;;;;;;;;;11.25;8.25;;;;;-146.80;100.00;64830.25;5076902;28;45374;-65
2021/07/09 09:29:27;;;;;;;;;9.25;7.25;;;;;-146.80;100.00;64830.25;5075271;28;45396;-63
2021/07/09 09:31:54;;;;;;;;;8.50;7.75;;;;;-146.80;100.00;64830.25;5076272;28;45326;-64
2021/07/09 09:34:41;;;;;;;;;8.50;7.00;;;;;-146.80;100.00;64830.25;5076110;28;45425;-64
2021/07/09 09:37:08;;;;;;;;;11.50;11.50;;;;;-146.80;100.00;64830.25;5075452;28;45437;-61
2021/07/09 09:39:34;;;;;;;;;3.00;0.00;;;;;-146.80;100.00;64830.25;5076787;28;45620;-67
2021/07/09 09:42:26;;;;;;;;;18.75;16.75;;;;;-146.80;100.00;64830.25;5074719;28;47287;-67
2021/07/09 09:44:58;;;;;;;;;13.50;11.50;;;;;-146.80;100.00;64830.25;5074979;27;45526;-65
2021/07/09 09:47:23;;;;;;;;;11.75;9.50;;;;;-146.80;100.00;64830.25;5076194;28;45247;-66
2021/07/09 09:49:55;;;;;;;;;11.00;10.00;;;;;-146.80;100.00;64830.25;5076136;28;45345;-66
2021/07/09 09:52:35;;;;;;;;;10.50;9.00;;;;;-146.80;100.00;64830.25;5074630;28;45633;-67
2021/07/09 09:55:08;;;;;;;;;17.25;11.50;;;;;-146.80;100.00;64830.25;5075615;28;45329;-64
2021/07/09 09:57:34;;;;;;;;;11.75;11.50;;;;;-146.80;100.00;64830.25;5076399;27;45267;-66
2021/07/09 10:00:00;;;;;;;;;12.00;10.75;;;;;-146.80;100.00;64830.25;5074757;28;45205;-67
2021/07/09 10:02:25;;;;;;;;;10.25;10.00;;;;;-146.80;100.00;64830.25;5074082;28;46423;-66
2021/07/09 10:04:54;;;;;;;;;6.75;6.75;;;;;-146.80;100.00;64830.25;5075703;28;45385;-69
2021/07/09 10:07:20;;;;;;;;;10.75;8.25;;;;;-146.80;100.00;64830.25;5074552;28;45368;-64
2021/07/09 10:09:48;;;;;;;;;14.25;11.00;;;;;-146.80;100.00;64830.25;5108386;27;45517;-65
2021/07/09 10:12:18;;;;;;;;;15.75;13.25;;;;;-146.80;100.00;64830.25;5075339;28;45556;-67
2021/07/09 10:14:45;;;;;;;;;21.75;21.75;;;;;-146.80;100.00;64830.25;5073877;28;45445;-66
2021/07/09 10:17:10;;;;;;;;;10.25;9.75;;;;;-146.80;100.00;64830.25;5075998;28;45271;-63
2021/07/09 10:19:44;;;;;;;;;17.00;12.75;;;;;-146.80;100.00;64830.25;5074422;28;45547;-67
2021/07/09 10:22:10;;;;;;;;;17.50;13.50;;;;;-146.80;100.00;64830.25;5073721;28;46695;-67
2021/07/09 10:24:44;;;;;;;;;16.25;14.25;;;;;-146.80;100.00;64830.25;5074461;28;45432;-66
2021/07/09 10:27:17;;;;;;;;;11.50;9.75;;;;;-146.80;100.00;64830.25;5074073;28;45380;-65
2021/07/09 10:29:45;;;;;;;;;9.50;7.00;;;;;-146.80;100.00;64830.25;5075866;28;45328;-64
2021/07/09 10:32:11;;;;;;;;;11.00;8.00;;;;;-146.80;100.00;64830.25;5075230;28;46109;-66
2021/07/09 10:34:37;;;;;;;;;10.50;9.00;;;;;-146.80;100.00;64830.25;5074246;28;45387;-66
2021/07/09 10:37:23;;;;;;;;;8.25;8.25;;;;;-146.80;100.00;64830.25;5075717;28;45224;-66
2021/07/09 10:39:51;;;;;;;;;9.00;9.00;;;;;-146.80;100.00;64830.25;5074240;28;45266;-66
2021/07/09 10:42:30;;;;;;;;;9.00;6.00;;;;;-146.80;100.00;64830.25;5074035;28;46831;-66
2021/07/09 10:44:58;;;;;;;;;11.75;10.25;;;;;-146.80;100.00;64830.25;5075272;28;45379;-65
2021/07/09 10:47:37;;;;;;;;;10.25;7.00;;;;;-146.80;100.00;64830.25;5075309;28;45246;-68
2021/07/09 10:50:09;;;;;;;;;12.75;11.00;;;;;-146.80;100.00;64830.25;5075662;28;45509;-66
2021/07/09 10:52:43;;;;;;;;;10.00;8.75;;;;;-146.80;100.00;64830.25;5074593;28;45322;-66
2021/07/09 10:55:30;;;;;;;;;8.25;7.50;;;;;-146.80;100.00;64830.25;5073705;28;45464;-64
2021/07/09 10:58:09;;;;;;;;;8.25;7.50;;;;;-146.80;100.00;64830.25;5075322;28;45789;-65
2021/07/09 11:00:57;;;;;;;;;12.00;9.25;;;;;-146.80;100.00;64830.25;5075248;28;45446;-67